Time;durP1;ratioP1;P1;durP2;ratioP2;P2;SDS_P1;SDS_P2;PMS_P1;PMS_P2;Temp;Humidity;BMP_temperature;BMP_pressure;BME280_temperature;BME280_humidity;BME280_pressure;Samples;Min_cycle;Max_cycle;Signal;HPM_P1;HPM_P2
2021/12/02 00:00:10;;;;;;;4.10;1.07;;;6.20;99.90;;;;;;5159893;28;20256;-50
2021/12/02 00:02:40;;;;;;;2.40;0.50;;;6.20;99.90;;;;;;5173345;28;20201;-51
2021/12/02 00:05:11;;;;;;;3.43;0.90;;;6.30;99.90;;;;;;5166106;28;20934;-49
2021/12/02 00:07:42;;;;;;;7.03;1.00;;;6.10;99.90;;;;;;5162064;28;20184;-50
2021/12/02 00:10:13;;;;;;;3.97;0.80;;;6.00;99.90;;;;;;5159935;28;20667;-49
2021/12/02 00:12:44;;;;;;;3.23;0.77;;;6.00;99.90;;;;;;5159367;28;20467;-50
2021/12/02 00:15:22;;;;;;;5.23;1.20;;;6.10;99.90;;;;;;5167208;28;20590;-50
2021/12/02 00:17:57;;;;;;;0.80;0.80;;;6.00;99.90;;;;;;5161430;28;20757;-50
2021/12/02 00:23:37;;;;;;;4.60;0.90;;;6.10;99.90;;;;;;5154800;28;20493;-49
2021/12/02 00:26:16;;;;;;;0.87;0.80;;;6.20;99.90;;;;;;5155536;28;20420;-50
2021/12/02 00:28:55;;;;;;;1.73;0.80;;;6.10;99.90;;;;;;5159360;28;20447;-50
2021/12/02 00:31:29;;;;;;;2.40;0.87;;;6.10;99.90;;;;;;5155180;28;20424;-49
2021/12/02 00:34:02;;;;;;;3.30;0.83;;;6.00;99.90;;;;;;5157731;28;21034;-50
2021/12/02 00:36:37;;;;;;;2.10;0.80;;;6.00;99.90;;;;;;5158325;28;20447;-50
2021/12/02 00:39:14;;;;;;;1.30;0.50;;;6.00;99.90;;;;;;5175118;28;20843;-50
2021/12/02 00:41:45;;;;;;;1.73;0.80;;;5.90;99.90;;;;;;5148444;28;20448;-49
2021/12/02 00:44:18;;;;;;;2.50;0.63;;;5.80;99.90;;;;;;5154688;28;20418;-49
2021/12/02 00:46:50;;;;;;;1.67;0.53;;;5.70;99.90;;;;;;5156774;28;20438;-51
2021/12/02 00:49:21;;;;;;;5.93;0.53;;;5.50;99.90;;;;;;5162529;28;20465;-51
2021/12/02 00:51:53;;;;;;;1.00;0.53;;;5.40;99.90;;;;;;5161499;28;20465;-48
2021/12/02 00:54:26;;;;;;;1.63;0.60;;;5.30;99.90;;;;;;5160428;28;20202;-52
2021/12/02 00:56:56;;;;;;;0.40;0.40;;;5.00;99.90;;;;;;5177730;28;20517;-50
2021/12/02 00:59:29;;;;;;;2.83;0.77;;;4.80;99.90;;;;;;5159250;28;20556;-50
2021/12/02 01:02:00;;;;;;;3.33;0.73;;;4.60;99.90;;;;;;5146689;28;20573;-52
2021/12/02 01:04:31;;;;;;;1.67;0.50;;;4.50;99.90;;;;;;5163998;28;20436;-49
2021/12/02 01:07:01;;;;;;;0.50;0.50;;;4.40;99.90;;;;;;5160548;28;20436;-48
2021/12/02 01:09:32;;;;;;;0.60;0.57;;;4.40;99.90;;;;;;5162265;28;20193;-50
2021/12/02 01:12:03;;;;;;;3.20;0.73;;;4.30;99.90;;;;;;5164287;28;20213;-50
2021/12/02 01:14:34;;;;;;;0.30;0.30;;;4.30;99.90;;;;;;5167512;28;20269;-49
2021/12/02 01:17:04;;;;;;;0.30;0.30;;;4.20;99.90;;;;;;5161020;28;20448;-50
2021/12/02 01:19:35;;;;;;;0.57;0.50;;;4.10;99.90;;;;;;5162952;28;20653;-49
2021/12/02 01:22:05;;;;;;;0.93;0.50;;;4.10;99.90;;;;;;5158112;28;20205;-50
2021/12/02 01:24:39;;;;;;;5.60;0.43;;;4.00;99.90;;;;;;5166293;28;20177;-52
2021/12/02 01:27:11;;;;;;;1.27;0.20;;;4.10;99.90;;;;;;5163476;28;20347;-48
2021/12/02 01:29:41;;;;;;;0.63;0.20;;;4.10;99.90;;;;;;5167827;28;20420;-50
2021/12/02 01:32:12;;;;;;;0.37;0.37;;;4.20;99.90;;;;;;5162518;28;20479;-49
2021/12/02 01:34:46;;;;;;;0.20;0.20;;;4.20;99.90;;;;;;5162820;28;20551;-50
2021/12/02 01:37:18;;;;;;;1.07;0.40;;;4.20;99.90;;;;;;5157764;28;20185;-50
2021/12/02 01:39:49;;;;;;;1.07;0.40;;;4.10;99.90;;;;;;5158260;28;20468;-49
2021/12/02 01:42:25;;;;;;;0.30;0.30;;;4.10;99.90;;;;;;5161588;28;20464;-49
2021/12/02 01:44:58;;;;;;;1.17;0.20;;;4.30;99.90;;;;;;5152942;28;20806;-49
2021/12/02 01:47:31;;;;;;;2.60;0.60;;;4.30;99.90;;;;;;5156930;28;20441;-49
2021/12/02 01:50:04;;;;;;;3.70;0.50;;;4.20;99.90;;;;;;5163733;28;20499;-49
2021/12/02 01:52:40;;;;;;;0.50;0.20;;;4.10;99.90;;;;;;5163215;28;20455;-49
2021/12/02 01:55:14;;;;;;;0.70;0.40;;;4.10;99.90;;;;;;5161533;28;20469;-48
2021/12/02 01:57:59;;;;;;;0.40;0.20;;;4.00;99.90;;;;;;5156334;28;20465;-49
2021/12/02 02:00:33;;;;;;;2.13;0.60;;;4.00;99.90;;;;;;5176982;28;20461;-50
2021/12/02 02:03:03;;;;;;;0.77;0.50;;;4.00;99.90;;;;;;5177292;28;20859;-48
2021/12/02 02:05:34;;;;;;;0.40;0.40;;;4.00;99.90;;;;;;5158743;28;20447;-49
2021/12/02 02:08:16;;;;;;;0.60;0.40;;;4.10;99.90;;;;;;5154841;28;20189;-50
2021/12/02 02:10:47;;;;;;;0.83;0.30;;;4.10;99.90;;;;;;5165568;28;20244;-49
2021/12/02 02:13:21;;;;;;;2.20;0.40;;;4.10;99.90;;;;;;5160891;28;20503;-49
2021/12/02 02:15:53;;;;;;;2.00;0.40;;;4.00;99.90;;;;;;5159187;28;20438;-49
2021/12/02 02:18:24;;;;;;;0.30;0.30;;;4.00;99.90;;;;;;5161262;28;20488;-49
2021/12/02 02:21:04;;;;;;;1.20;0.67;;;3.90;99.90;;;;;;5166445;28;20470;-49
2021/12/02 02:23:39;;;;;;;0.83;0.40;;;3.80;99.90;;;;;;5142644;28;20543;-49
2021/12/02 02:26:09;;;;;;;1.20;0.47;;;3.80;99.90;;;;;;5156480;28;20531;-49
2021/12/02 02:28:40;;;;;;;1.03;0.30;;;3.80;99.90;;;;;;5158728;28;20899;-49
2021/12/02 02:31:11;;;;;;;0.40;0.40;;;3.70;99.90;;;;;;5169188;28;20185;-49
2021/12/02 02:33:43;;;;;;;7.70;0.70;;;3.70;99.90;;;;;;5204889;23;20236;-49
2021/12/02 02:36:13;;;;;;;0.47;0.47;;;3.60;99.90;;;;;;5198146;28;20184;-49
2021/12/02 02:38:54;;;;;;;0.30;0.30;;;3.60;99.90;;;;;;5201504;28;20449;-49
2021/12/02 02:41:36;;;;;;;2.40;0.60;;;3.60;99.90;;;;;;5205388;28;20274;-54
2021/12/02 02:44:09;;;;;;;2.93;0.57;;;3.60;99.90;;;;;;5176244;28;20919;-51
2021/12/02 02:46:41;;;;;;;2.57;0.60;;;3.60;99.90;;;;;;5182117;28;20438;-49
2021/12/02 02:49:13;;;;;;;2.10;0.63;;;3.60;99.90;;;;;;5200179;28;20470;-50
2021/12/02 02:51:44;;;;;;;0.40;0.37;;;3.60;99.90;;;;;;5186254;28;20782;-50
2021/12/02 02:54:16;;;;;;;1.60;0.57;;;3.50;99.90;;;;;;5196751;28;20882;-49
2021/12/02 02:57:01;;;;;;;1.63;0.53;;;3.50;99.90;;;;;;5181816;28;20434;-49
2021/12/02 02:59:53;;;;;;;2.77;0.80;;;3.60;99.90;;;;;;5188689;28;20470;-49
2021/12/02 03:07:45;;;;;;;1.73;0.40;;;3.60;99.90;;;;;;5184503;28;20438;-49
2021/12/02 03:10:38;;;;;;;1.33;0.70;;;3.60;99.90;;;;;;5174383;28;20435;-49
2021/12/02 03:13:22;;;;;;;1.17;0.77;;;3.60;99.90;;;;;;5200282;28;20459;-49
2021/12/02 03:18:42;;;;;;;4.57;1.00;;;3.60;99.90;;;;;;5178666;28;20501;-50
2021/12/02 03:21:23;;;;;;;2.80;0.67;;;3.60;99.90;;;;;;5184172;28;20436;-48
2021/12/02 03:23:57;;;;;;;3.10;0.93;;;3.70;99.90;;;;;;5185200;28;20199;-49
2021/12/02 03:26:29;;;;;;;3.33;0.60;;;3.70;99.90;;;;;;5185179;28;20423;-50
2021/12/02 03:29:00;;;;;;;1.93;0.47;;;3.80;99.90;;;;;;5192473;28;20435;-49
2021/12/02 03:31:32;;;;;;;3.40;0.83;;;3.70;99.90;;;;;;5190889;28;20799;-50
2021/12/02 03:34:04;;;;;;;1.23;0.83;;;3.60;99.90;;;;;;5184217;28;20869;-50
2021/12/02 03:36:35;;;;;;;0.77;0.57;;;3.60;99.90;;;;;;5175127;28;21001;-49
2021/12/02 03:39:09;;;;;;;8.53;0.70;;;3.50;99.90;;;;;;5184487;28;20463;-50
2021/12/02 03:41:40;;;;;;;0.40;0.40;;;3.50;99.90;;;;;;5199308;28;20812;-49
2021/12/02 03:44:11;;;;;;;1.00;0.50;;;3.50;99.90;;;;;;5184687;28;20502;-49
2021/12/02 03:46:42;;;;;;;4.80;0.30;;;3.50;99.90;;;;;;5186840;28;20544;-51
2021/12/02 03:49:12;;;;;;;8.57;0.80;;;3.50;99.90;;;;;;5181007;28;20461;-50
2021/12/02 03:51:43;;;;;;;1.40;0.53;;;3.40;99.90;;;;;;5184198;28;20194;-48
2021/12/02 03:54:13;;;;;;;1.33;0.83;;;3.40;99.90;;;;;;5180147;28;20181;-49
2021/12/02 03:56:44;;;;;;;2.20;0.60;;;3.50;99.90;;;;;;5181282;28;20188;-49
2021/12/02 03:59:15;;;;;;;2.33;0.50;;;3.50;99.90;;;;;;5191907;28;20235;-49
2021/12/02 04:01:46;;;;;;;0.50;0.50;;;3.50;99.90;;;;;;5182340;28;20184;-51
2021/12/02 04:04:17;;;;;;;8.83;0.83;;;3.40;99.90;;;;;;5184279;28;20271;-50
2021/12/02 04:06:47;;;;;;;0.87;0.50;;;3.50;99.90;;;;;;5199533;28;20519;-49
2021/12/02 04:09:22;;;;;;;1.13;0.80;;;3.50;99.90;;;;;;5196705;28;20181;-49
2021/12/02 04:12:05;;;;;;;1.03;1.03;;;3.50;99.90;;;;;;5183987;28;20274;-50
2021/12/02 04:14:40;;;;;;;0.60;0.60;;;3.50;99.90;;;;;;5183888;28;20419;-50
2021/12/02 04:17:13;;;;;;;3.90;0.50;;;3.40;99.90;;;;;;5177596;28;20406;-49
2021/12/02 04:19:43;;;;;;;2.30;0.67;;;3.40;99.90;;;;;;5182182;28;20604;-49
2021/12/02 04:22:14;;;;;;;9.70;0.83;;;3.30;99.90;;;;;;5184623;28;20966;-51
2021/12/02 04:24:44;;;;;;;3.80;0.80;;;3.30;99.90;;;;;;5183661;28;20269;-50
2021/12/02 04:27:16;;;;;;;0.97;0.53;;;3.20;99.90;;;;;;5182263;28;20204;-50
2021/12/02 04:29:46;;;;;;;2.17;0.50;;;3.20;99.90;;;;;;5177341;28;20534;-51
2021/12/02 04:32:17;;;;;;;1.40;0.73;;;3.20;99.90;;;;;;5185931;28;20455;-49
2021/12/02 04:34:47;;;;;;;0.73;0.73;;;3.20;99.90;;;;;;5185263;28;20188;-49
2021/12/02 04:37:18;;;;;;;2.10;0.40;;;3.20;99.90;;;;;;5185812;28;20192;-50
2021/12/02 04:39:48;;;;;;;0.73;0.70;;;3.20;99.90;;;;;;5184665;28;20226;-48
2021/12/02 04:42:19;;;;;;;2.47;0.57;;;3.20;99.90;;;;;;5192253;28;20283;-49
2021/12/02 04:44:49;;;;;;;0.50;0.50;;;3.10;99.90;;;;;;5188866;28;20204;-49
2021/12/02 04:47:20;;;;;;;0.80;0.80;;;3.10;99.90;;;;;;5178314;28;20184;-51
2021/12/02 04:49:54;;;;;;;5.77;0.63;;;3.10;99.90;;;;;;5185536;28;20691;-50
2021/12/02 04:52:27;;;;;;;4.40;0.93;;;3.10;99.90;;;;;;5200054;28;20311;-49
2021/12/02 04:54:58;;;;;;;0.90;0.67;;;3.10;99.90;;;;;;5183301;28;20439;-49
2021/12/02 04:57:28;;;;;;;2.17;0.80;;;3.10;99.90;;;;;;5198913;28;20958;-50
2021/12/02 04:59:59;;;;;;;0.90;0.60;;;3.10;99.90;;;;;;5202299;28;20200;-50
2021/12/02 05:02:29;;;;;;;9.30;1.77;;;3.10;99.90;;;;;;5193438;28;20200;-50
2021/12/02 05:05:00;;;;;;;1.57;1.43;;;3.00;99.90;;;;;;5187522;28;20203;-50
2021/12/02 05:07:33;;;;;;;2.10;0.77;;;3.00;99.90;;;;;;5185845;28;20291;-49
2021/12/02 05:10:05;;;;;;;1.13;0.60;;;3.00;99.90;;;;;;5193238;28;20214;-49
2021/12/02 05:12:36;;;;;;;8.10;1.00;;;3.00;99.90;;;;;;5209470;28;20881;-50
2021/12/02 05:15:07;;;;;;;7.00;0.70;;;3.00;99.90;;;;;;5184689;28;20478;-48
2021/12/02 05:17:37;;;;;;;0.83;0.60;;;2.90;99.90;;;;;;5184458;28;20195;-48
2021/12/02 05:20:09;;;;;;;0.67;0.67;;;2.90;99.90;;;;;;5202572;28;20238;-49
2021/12/02 05:22:39;;;;;;;1.50;0.60;;;2.90;99.90;;;;;;5204149;28;20204;-49
2021/12/02 05:25:10;;;;;;;0.70;0.70;;;2.80;99.90;;;;;;5188811;28;20458;-49
2021/12/02 05:27:41;;;;;;;5.60;1.50;;;2.80;99.90;;;;;;5188915;28;20180;-49
2021/12/02 05:30:11;;;;;;;1.33;1.23;;;2.80;99.90;;;;;;5186409;28;20645;-49
2021/12/02 05:32:42;;;;;;;2.53;0.80;;;2.80;99.90;;;;;;5187783;28;20641;-50
2021/12/02 05:35:12;;;;;;;4.83;0.80;;;2.70;99.90;;;;;;5202224;28;20246;-49
2021/12/02 05:37:43;;;;;;;2.70;1.20;;;2.70;99.90;;;;;;5181045;28;20239;-49
2021/12/02 05:40:14;;;;;;;1.23;0.70;;;2.70;99.90;;;;;;5178210;28;20275;-49
2021/12/02 05:42:47;;;;;;;0.90;0.70;;;2.60;99.90;;;;;;5181392;28;20596;-48
2021/12/02 05:45:18;;;;;;;0.70;0.70;;;2.70;99.90;;;;;;5183732;28;20270;-49
2021/12/02 05:47:48;;;;;;;3.90;0.60;;;2.60;99.90;;;;;;5201966;28;20435;-49
2021/12/02 05:50:19;;;;;;;2.57;0.80;;;2.60;99.90;;;;;;5201870;28;20279;-49
2021/12/02 05:52:50;;;;;;;0.83;0.40;;;2.60;99.90;;;;;;5185263;28;20280;-49
2021/12/02 05:55:20;;;;;;;1.60;0.60;;;2.60;99.90;;;;;;5184653;28;20218;-49
2021/12/02 05:57:51;;;;;;;0.80;0.80;;;2.60;99.90;;;;;;5178398;28;20196;-49
2021/12/02 06:00:22;;;;;;;0.40;0.40;;;2.60;99.90;;;;;;5205402;28;20299;-49
2021/12/02 06:02:52;;;;;;;0.60;0.60;;;2.60;99.90;;;;;;5200647;28;20196;-49
2021/12/02 06:05:23;;;;;;;4.77;0.70;;;2.60;99.90;;;;;;5186306;28;20184;-49
2021/12/02 06:07:58;;;;;;;0.77;0.50;;;2.70;99.90;;;;;;5200816;28;20231;-48
2021/12/02 06:10:29;;;;;;;0.40;0.40;;;2.70;99.90;;;;;;5194007;28;20191;-48
2021/12/02 06:13:00;;;;;;;1.90;0.43;;;2.70;99.90;;;;;;5203269;28;21046;-49
2021/12/02 06:15:30;;;;;;;1.50;0.40;;;2.70;99.90;;;;;;5186212;28;20553;-49
2021/12/02 06:18:01;;;;;;;1.40;0.40;;;2.70;99.90;;;;;;5185050;28;20616;-49
2021/12/02 06:20:31;;;;;;;2.87;0.67;;;2.70;99.90;;;;;;5200346;28;20250;-49
2021/12/02 06:23:02;;;;;;;1.13;0.73;;;2.70;99.90;;;;;;5200236;28;20200;-49
2021/12/02 06:28:05;;;;;;;0.60;0.50;;;2.80;99.90;;;;;;5184092;28;20198;-49
2021/12/02 06:30:35;;;;;;;2.57;0.83;;;2.80;99.90;;;;;;5184387;28;20272;-49
2021/12/02 06:33:06;;;;;;;1.70;0.70;;;2.80;99.90;;;;;;5183869;28;20563;-49
2021/12/02 06:35:37;;;;;;;1.53;0.70;;;2.90;99.90;;;;;;5185834;28;20267;-49
2021/12/02 06:38:08;;;;;;;7.10;1.30;;;2.90;99.90;;;;;;5180832;28;20528;-49
2021/12/02 06:40:40;;;;;;;14.63;0.77;;;2.80;99.90;;;;;;5193390;28;20570;-50
2021/12/02 06:43:15;;;;;;;1.00;0.90;;;2.90;99.90;;;;;;5186716;28;20516;-49
2021/12/02 06:45:46;;;;;;;2.23;0.93;;;2.90;99.90;;;;;;5186099;28;20443;-49
2021/12/02 06:48:17;;;;;;;0.63;0.60;;;2.80;99.90;;;;;;5190062;28;20696;-49
2021/12/02 06:50:47;;;;;;;0.70;0.70;;;2.80;99.90;;;;;;5185231;28;20558;-49
2021/12/02 06:53:19;;;;;;;2.77;0.90;;;2.70;99.90;;;;;;5200296;28;20707;-50
2021/12/02 06:55:49;;;;;;;4.20;1.03;;;2.60;99.90;;;;;;5184520;28;20246;-50
2021/12/02 06:58:20;;;;;;;1.90;0.70;;;2.60;99.90;;;;;;5184953;28;20439;-49
2021/12/02 07:00:51;;;;;;;4.47;0.90;;;2.60;99.90;;;;;;5200262;28;20703;-49
2021/12/02 07:03:21;;;;;;;1.23;0.73;;;2.60;99.90;;;;;;5183642;28;20205;-49
2021/12/02 07:05:52;;;;;;;0.57;0.57;;;2.50;99.90;;;;;;5181169;28;20180;-50
2021/12/02 07:08:23;;;;;;;0.73;0.70;;;2.50;99.90;;;;;;5201398;28;20181;-49
2021/12/02 07:10:54;;;;;;;1.33;1.00;;;2.40;99.90;;;;;;5189630;28;20196;-49
2021/12/02 07:13:24;;;;;;;2.30;0.70;;;2.60;99.90;;;;;;5186484;28;20467;-49
2021/12/02 07:15:56;;;;;;;1.23;1.00;;;2.60;99.90;;;;;;5187062;28;20909;-50
2021/12/02 07:18:27;;;;;;;0.70;0.70;;;2.70;99.90;;;;;;5187940;28;20276;-49
2021/12/02 07:20:57;;;;;;;1.90;0.90;;;2.70;99.90;;;;;;5187156;28;20522;-49
2021/12/02 07:23:28;;;;;;;0.50;0.50;;;2.70;99.90;;;;;;5183645;28;20683;-50
2021/12/02 07:25:59;;;;;;;4.00;0.90;;;2.70;99.90;;;;;;5184448;28;20251;-50
2021/12/02 07:28:35;;;;;;;1.03;1.03;;;2.80;99.90;;;;;;5184543;28;20622;-49
2021/12/02 07:31:06;;;;;;;0.50;0.50;;;2.70;99.90;;;;;;5180405;28;20438;-51
2021/12/02 07:33:38;;;;;;;1.50;0.70;;;2.70;99.90;;;;;;5200384;28;20823;-50
2021/12/02 07:36:10;;;;;;;0.60;0.60;;;2.70;99.90;;;;;;5186272;28;20482;-51
2021/12/02 07:38:40;;;;;;;1.13;0.63;;;2.70;99.90;;;;;;5200230;28;20446;-51
2021/12/02 07:41:11;;;;;;;2.30;0.63;;;2.60;99.90;;;;;;5185743;28;20458;-50
2021/12/02 07:43:45;;;;;;;2.97;0.80;;;2.50;99.90;;;;;;5185193;28;20204;-50
2021/12/02 07:46:15;;;;;;;2.97;0.90;;;2.50;99.90;;;;;;5179192;28;20620;-50
2021/12/02 07:48:46;;;;;;;0.40;0.40;;;2.70;99.90;;;;;;5181105;28;20447;-51
2021/12/02 07:51:17;;;;;;;1.80;1.20;;;2.70;99.90;;;;;;5184019;28;20196;-49
2021/12/02 07:53:49;;;;;;;5.27;0.63;;;2.80;99.90;;;;;;5188060;28;20200;-49
2021/12/02 07:56:21;;;;;;;0.60;0.43;;;2.90;99.90;;;;;;5184921;28;20191;-49
2021/12/02 07:58:52;;;;;;;1.53;0.57;;;2.90;99.90;;;;;;5184248;28;20942;-49
2021/12/02 08:01:22;;;;;;;2.57;0.70;;;3.00;99.90;;;;;;5184797;28;20446;-51
2021/12/02 08:03:53;;;;;;;0.87;0.73;;;2.90;99.90;;;;;;5196085;28;20564;-50
2021/12/02 08:06:24;;;;;;;1.27;0.50;;;3.00;99.90;;;;;;5182522;28;20192;-48
2021/12/02 08:08:55;;;;;;;4.13;1.13;;;3.00;99.90;;;;;;5177216;28;20176;-49
2021/12/02 08:11:26;;;;;;;0.87;0.60;;;3.00;99.90;;;;;;5200945;28;20427;-51
2021/12/02 08:13:57;;;;;;;1.60;0.60;;;3.00;99.90;;;;;;5184960;28;20880;-50
2021/12/02 08:16:27;;;;;;;1.80;0.53;;;3.00;99.90;;;;;;5184120;28;20282;-50
2021/12/02 08:19:01;;;;;;;3.40;1.00;;;3.00;99.90;;;;;;5200125;28;20427;-51
2021/12/02 08:21:31;;;;;;;4.03;0.87;;;3.00;99.90;;;;;;5184050;28;20734;-49
2021/12/02 08:24:02;;;;;;;1.10;0.70;;;3.00;99.90;;;;;;5188414;28;20435;-50
2021/12/02 08:26:33;;;;;;;0.80;0.80;;;2.90;99.90;;;;;;5183636;28;20557;-51
2021/12/02 08:29:05;;;;;;;0.93;0.80;;;3.00;99.90;;;;;;5175930;28;20177;-50
2021/12/02 08:31:35;;;;;;;1.50;0.63;;;3.00;99.90;;;;;;5183604;28;20458;-49
2021/12/02 08:34:06;;;;;;;1.80;1.00;;;2.90;99.90;;;;;;5183656;28;20427;-50
2021/12/02 08:36:49;;;;;;;3.03;1.00;;;2.90;99.90;;;;;;5184101;28;20263;-50
2021/12/02 08:39:30;;;;;;;6.43;0.73;;;3.10;99.90;;;;;;5183436;28;20561;-49
2021/12/02 08:42:02;;;;;;;1.70;0.50;;;3.00;99.90;;;;;;5174183;28;20499;-49
2021/12/02 08:44:36;;;;;;;2.27;0.53;;;2.90;99.90;;;;;;5184819;28;21409;-51
2021/12/02 08:47:09;;;;;;;3.27;0.73;;;2.90;99.90;;;;;;5180394;28;20478;-49
2021/12/02 08:49:40;;;;;;;0.80;0.80;;;2.90;99.90;;;;;;5191999;28;20447;-49
2021/12/02 08:52:10;;;;;;;4.00;0.80;;;2.90;99.90;;;;;;5180695;28;20497;-50
2021/12/02 08:54:41;;;;;;;0.93;0.63;;;2.80;99.90;;;;;;5166154;28;20187;-50
2021/12/02 08:57:11;;;;;;;0.97;0.50;;;2.90;99.90;;;;;;5176946;28;20239;-50
2021/12/02 08:59:43;;;;;;;0.60;0.60;;;2.90;99.90;;;;;;5193525;28;20299;-50
2021/12/02 09:02:14;;;;;;;7.80;0.80;;;2.90;99.90;;;;;;5179482;28;20211;-50
2021/12/02 09:04:45;;;;;;;1.23;0.57;;;2.90;99.90;;;;;;5174565;28;20477;-51
2021/12/02 09:07:15;;;;;;;0.60;0.60;;;2.80;99.90;;;;;;5180080;28;20181;-49
2021/12/02 09:09:46;;;;;;;1.97;1.33;;;2.70;99.90;;;;;;5193744;28;20465;-51
2021/12/02 09:12:17;;;;;;;4.10;1.00;;;2.70;99.90;;;;;;5194427;28;20247;-51
2021/12/02 09:14:47;;;;;;;7.90;0.70;;;2.60;99.90;;;;;;5184859;28;20227;-50
2021/12/02 09:17:18;;;;;;;1.13;0.90;;;2.60;99.90;;;;;;5191569;28;20184;-50
2021/12/02 09:19:49;;;;;;;1.57;0.50;;;2.50;99.90;;;;;;5191195;28;20216;-50
2021/12/02 09:22:19;;;;;;;0.80;0.80;;;2.50;99.90;;;;;;5177187;28;20554;-50
2021/12/02 09:24:50;;;;;;;3.90;1.40;;;2.50;99.90;;;;;;5194155;28;20222;-50
2021/12/02 09:27:21;;;;;;;3.60;1.13;;;2.60;99.90;;;;;;5179282;28;20570;-50
2021/12/02 09:29:51;;;;;;;4.43;1.33;;;2.70;99.90;;;;;;5177130;28;20178;-50
2021/12/02 09:32:22;;;;;;;1.33;1.13;;;2.80;99.90;;;;;;5178472;28;20275;-49
2021/12/02 09:34:53;;;;;;;2.00;1.03;;;3.00;99.90;;;;;;5174827;28;20664;-49
2021/12/02 09:37:23;;;;;;;0.97;0.90;;;3.00;99.90;;;;;;5177862;28;20189;-51
2021/12/02 09:39:54;;;;;;;2.00;0.73;;;3.00;99.90;;;;;;5176598;28;20570;-49
2021/12/02 09:42:26;;;;;;;0.83;0.83;;;2.90;99.90;;;;;;5179128;28;20564;-51
2021/12/02 09:45:00;;;;;;;5.47;1.13;;;2.90;99.90;;;;;;5182763;28;20207;-48
2021/12/02 09:47:34;;;;;;;0.33;0.33;;;2.80;99.90;;;;;;5181065;28;20506;-49
2021/12/02 09:50:36;;;;;;;1.83;0.80;;;2.90;99.90;;;;;;5175503;28;20450;-51
2021/12/02 09:53:14;;;;;;;2.20;1.10;;;2.90;99.90;;;;;;5182320;28;20536;-48
2021/12/02 09:55:52;;;;;;;6.50;0.97;;;2.90;99.90;;;;;;5201054;28;20859;-49
2021/12/02 09:58:25;;;;;;;5.70;1.00;;;2.90;99.90;;;;;;5182191;28;20500;-49
2021/12/02 10:01:07;;;;;;;0.60;0.60;;;2.90;99.90;;;;;;5178693;28;20477;-50
2021/12/02 10:03:40;;;;;;;1.77;0.93;;;3.00;99.90;;;;;;5180409;28;20463;-50
2021/12/02 10:06:19;;;;;;;0.90;0.90;;;3.00;99.90;;;;;;5181719;28;20502;-51
2021/12/02 10:09:08;;;;;;;1.57;0.70;;;2.90;99.90;;;;;;5196415;28;20443;-49
2021/12/02 10:11:59;;;;;;;3.80;1.30;;;2.90;99.90;;;;;;5174959;28;20493;-51
2021/12/02 10:14:36;;;;;;;3.23;0.80;;;3.00;99.90;;;;;;5178905;28;20443;-49
2021/12/02 10:17:18;;;;;;;5.53;0.93;;;3.00;99.90;;;;;;5181198;28;20801;-50
2021/12/02 10:20:33;;;;;;;3.70;0.80;;;3.10;99.90;;;;;;5196976;28;20549;-49
2021/12/02 10:23:15;;;;;;;0.70;0.70;;;3.10;99.90;;;;;;5181771;28;20450;-50
2021/12/02 10:25:50;;;;;;;1.30;1.20;;;3.10;99.90;;;;;;5181880;28;20526;-49
2021/12/02 10:28:21;;;;;;;1.63;1.17;;;3.10;99.90;;;;;;5175987;28;20453;-50
2021/12/02 10:30:58;;;;;;;3.20;0.80;;;3.20;99.90;;;;;;5193918;28;20502;-49
2021/12/02 10:33:43;;;;;;;0.87;0.60;;;3.10;99.90;;;;;;5194230;28;20536;-52
2021/12/02 10:36:33;;;;;;;2.20;0.60;;;3.20;99.90;;;;;;5176663;28;20478;-50
2021/12/02 10:39:10;;;;;;;6.50;1.20;;;3.30;99.90;;;;;;5177192;28;20483;-51
2021/12/02 10:41:43;;;;;;;2.33;0.93;;;3.30;99.90;;;;;;5172742;28;20497;-51
2021/12/02 10:44:20;;;;;;;2.40;1.40;;;3.40;99.90;;;;;;5177614;28;20574;-52
2021/12/02 10:47:00;;;;;;;4.23;1.30;;;3.30;99.90;;;;;;5174750;28;20431;-50
2021/12/02 10:49:35;;;;;;;7.30;0.70;;;3.30;99.90;;;;;;5173960;28;20448;-50
2021/12/02 10:52:06;;;;;;;0.83;0.57;;;3.30;99.90;;;;;;5191412;28;20463;-50
2021/12/02 10:54:42;;;;;;;7.73;0.73;;;3.20;99.90;;;;;;5178809;28;20427;-49
2021/12/02 10:57:24;;;;;;;5.70;3.17;;;3.20;99.90;;;;;;5172560;28;20435;-51
2021/12/02 10:59:57;;;;;;;1.40;1.30;;;3.20;99.90;;;;;;5192203;28;20481;-51
2021/12/02 11:02:35;;;;;;;1.13;0.87;;;3.30;99.90;;;;;;5191312;28;20645;-50
2021/12/02 11:05:08;;;;;;;3.90;1.40;;;3.40;99.90;;;;;;5174677;28;20795;-51
2021/12/02 11:07:41;;;;;;;4.27;0.77;;;3.30;99.90;;;;;;5178950;28;21382;-50
2021/12/02 11:10:15;;;;;;;4.80;2.50;;;3.30;99.90;;;;;;5159331;28;20491;-49
2021/12/02 11:12:53;;;;;;;12.03;4.40;;;3.40;99.90;;;;;;5173853;28;20887;-50
2021/12/02 11:15:34;;;;;;;1.43;1.33;;;3.40;99.90;;;;;;5174613;28;20430;-50
2021/12/02 11:18:11;;;;;;;1.77;1.00;;;3.40;99.90;;;;;;5189239;28;20431;-54
2021/12/02 11:20:44;;;;;;;2.60;0.63;;;3.40;99.90;;;;;;5173818;28;20565;-50
2021/12/02 11:23:27;;;;;;;6.27;4.30;;;3.40;99.90;;;;;;5173392;28;20494;-49
2021/12/02 11:26:10;;;;;;;1.10;0.97;;;3.40;99.80;;;;;;5172992;28;20431;-51
2021/12/02 11:28:43;;;;;;;1.47;1.20;;;3.40;99.80;;;;;;5176755;28;20489;-51
2021/12/02 11:31:17;;;;;;;8.43;1.03;;;3.40;99.90;;;;;;5175373;28;20467;-51
2021/12/02 11:33:49;;;;;;;1.17;1.17;;;3.50;99.80;;;;;;5175808;28;20470;-52
2021/12/02 11:36:22;;;;;;;1.47;1.20;;;3.40;99.90;;;;;;5194274;28;20782;-51
2021/12/02 11:38:57;;;;;;;1.50;0.90;;;3.40;99.90;;;;;;5177744;28;20424;-51
2021/12/02 11:41:28;;;;;;;4.43;0.80;;;3.40;99.70;;;;;;5178777;28;20442;-49
2021/12/02 11:43:59;;;;;;;5.13;1.10;;;3.40;99.90;;;;;;5176166;28;20978;-49
2021/12/02 11:46:30;;;;;;;4.50;1.40;;;3.40;99.90;;;;;;5175841;28;20526;-50
2021/12/02 11:49:01;;;;;;;0.70;0.70;;;3.40;99.50;;;;;;5175778;28;20184;-49
2021/12/02 11:51:31;;;;;;;11.23;0.90;;;3.60;99.10;;;;;;5173226;28;20453;-50
2021/12/02 11:54:02;;;;;;;1.47;0.77;;;3.60;98.30;;;;;;5175558;28;20323;-51
2021/12/02 11:56:33;;;;;;;1.57;1.47;;;3.50;97.60;;;;;;5193961;28;20268;-50
2021/12/02 11:59:07;;;;;;;1.83;0.90;;;3.40;98.80;;;;;;5175814;28;20196;-49
2021/12/02 12:01:39;;;;;;;1.60;0.97;;;3.50;99.60;;;;;;5173682;28;20219;-51
2021/12/02 12:04:11;;;;;;;3.00;0.97;;;3.60;98.90;;;;;;5172767;28;20781;-50
2021/12/02 12:06:42;;;;;;;2.10;1.00;;;3.60;97.70;;;;;;5178762;28;20431;-50
2021/12/02 12:09:16;;;;;;;4.30;2.20;;;3.60;97.90;;;;;;5191752;28;20509;-49
2021/12/02 12:11:50;;;;;;;3.53;1.20;;;3.70;96.40;;;;;;5190069;28;20215;-52
2021/12/02 12:14:43;;;;;;;3.70;2.83;;;3.60;94.70;;;;;;5190476;28;20506;-50
2021/12/02 12:17:15;;;;;;;4.73;1.50;;;3.60;94.00;;;;;;5176776;28;20924;-50
2021/12/02 12:19:50;;;;;;;6.53;4.73;;;3.60;94.00;;;;;;5158804;28;20574;-51
2021/12/02 12:22:27;;;;;;;3.93;2.97;;;3.60;93.60;;;;;;5177604;28;20528;-51
2021/12/02 12:25:06;;;;;;;2.10;1.73;;;3.60;93.50;;;;;;5174463;28;20436;-50
2021/12/02 12:27:38;;;;;;;10.77;3.47;;;3.60;93.40;;;;;;5174758;28;20427;-50
2021/12/02 12:30:13;;;;;;;16.30;6.17;;;3.70;93.80;;;;;;5172899;28;20450;-49
2021/12/02 12:38:33;;;;;;;5.60;2.63;;;3.80;90.60;;;;;;5180626;28;20446;-51
2021/12/02 12:41:15;;;;;;;4.30;1.80;;;3.70;90.70;;;;;;5189795;28;20531;-52
2021/12/02 12:43:51;;;;;;;4.77;1.13;;;3.70;91.20;;;;;;5193412;28;20462;-50
2021/12/02 12:46:30;;;;;;;2.13;1.40;;;3.80;91.10;;;;;;5159826;28;20525;-50
2021/12/02 12:49:18;;;;;;;3.43;1.20;;;3.70;90.10;;;;;;5175528;28;20861;-51
2021/12/02 12:51:55;;;;;;;4.27;0.67;;;3.60;90.70;;;;;;5194301;28;20517;-52
2021/12/02 12:54:26;;;;;;;1.70;1.20;;;3.50;91.30;;;;;;5191298;28;20537;-51
2021/12/02 12:57:05;;;;;;;3.30;1.10;;;3.40;91.80;;;;;;5178511;28;20546;-51
2021/12/02 12:59:55;;;;;;;0.63;0.57;;;3.50;92.60;;;;;;5176721;28;20399;-51
2021/12/02 13:02:31;;;;;;;5.53;2.40;;;3.70;92.30;;;;;;5179481;28;20454;-50
2021/12/02 13:05:01;;;;;;;13.93;1.60;;;3.60;92.90;;;;;;5180673;28;20450;-51
2021/12/02 13:07:32;;;;;;;1.90;1.00;;;3.60;93.20;;;;;;5179381;28;20447;-50
2021/12/02 13:10:15;;;;;;;4.30;1.87;;;3.70;92.20;;;;;;5196540;28;20188;-51
2021/12/02 13:12:50;;;;;;;1.53;1.07;;;3.70;92.80;;;;;;5176990;28;20322;-51
2021/12/02 13:15:24;;;;;;;4.23;1.10;;;3.70;91.90;;;;;;5190868;28;20442;-49
2021/12/02 13:17:57;;;;;;;1.80;1.20;;;3.70;91.90;;;;;;5175400;28;20465;-50
2021/12/02 13:20:35;;;;;;;1.13;0.80;;;3.60;91.10;;;;;;5180024;28;20541;-51
2021/12/02 13:23:12;;;;;;;1.33;1.17;;;3.50;90.80;;;;;;5180249;28;20928;-50
2021/12/02 13:25:44;;;;;;;5.40;1.00;;;3.50;90.30;;;;;;5190255;28;20446;-51
2021/12/02 13:28:17;;;;;;;8.73;0.83;;;3.40;89.80;;;;;;5177283;28;20443;-50
2021/12/02 13:30:52;;;;;;;9.63;1.30;;;3.30;86.60;;;;;;5176759;28;20444;-51
2021/12/02 13:33:41;;;;;;;1.50;1.40;;;3.20;85.80;;;;;;5176712;28;20941;-51
2021/12/02 13:36:14;;;;;;;3.60;1.33;;;3.20;84.40;;;;;;5174424;28;20503;-51
2021/12/02 13:39:07;;;;;;;2.30;1.20;;;3.20;84.20;;;;;;5176793;28;20431;-49
2021/12/02 13:41:51;;;;;;;2.90;1.20;;;3.10;85.70;;;;;;5177530;28;21006;-50
2021/12/02 13:44:28;;;;;;;4.73;1.47;;;3.10;86.80;;;;;;5182226;28;20522;-54
2021/12/02 13:47:07;;;;;;;9.17;1.40;;;3.10;88.20;;;;;;5179524;28;20544;-50
2021/12/02 13:49:45;;;;;;;2.07;1.00;;;3.00;87.80;;;;;;5177987;28;20485;-51